createdAt,value
2022-08-21T00:02:02.752Z,89.06
2022-08-21T00:04:30.297Z,89.25
2022-08-21T00:06:58.082Z,89.37
2022-08-21T00:09:25.056Z,90.21
2022-08-21T00:11:51.666Z,90.80
2022-08-21T00:14:18.194Z,91.09
2022-08-21T00:16:45.067Z,91.29
2022-08-21T00:19:11.858Z,91.90
2022-08-21T00:21:38.538Z,92.02
2022-08-21T00:24:06.200Z,91.53
2022-08-21T00:26:34.463Z,91.75
2022-08-21T00:29:01.179Z,91.45
2022-08-21T00:31:28.525Z,91.67
2022-08-21T00:33:56.274Z,92.74
2022-08-21T00:36:28.437Z,93.92
2022-08-21T00:38:55.036Z,94.42
2022-08-21T00:41:38.601Z,94.52
2022-08-21T00:44:08.562Z,95.22
2022-08-21T00:46:36.073Z,96.13
2022-08-21T00:49:02.739Z,96.42
2022-08-21T00:51:53.970Z,96.52
2022-08-21T00:54:23.497Z,96.60
2022-08-21T00:56:55.608Z,96.58
2022-08-21T00:59:27.593Z,96.71
2022-08-21T01:01:54.474Z,96.52
2022-08-21T01:04:22.051Z,96.38
2022-08-21T01:06:48.859Z,95.82
2022-08-21T01:09:16.233Z,95.08
2022-08-21T01:11:46.251Z,94.38
2022-08-21T01:14:15.345Z,93.57
2022-08-21T01:16:45.959Z,92.33
2022-08-21T01:19:14.826Z,92.02
2022-08-21T01:21:41.455Z,92.16
2022-08-21T01:24:11.456Z,92.33
2022-08-21T01:26:38.033Z,92.61
2022-08-21T01:29:11.136Z,92.31
2022-08-21T01:31:38.455Z,92.57
2022-08-21T01:34:05.913Z,92.44
2022-08-21T01:36:33.156Z,92.10
2022-08-21T01:38:59.859Z,92.21
2022-08-21T01:41:26.565Z,91.72
2022-08-21T01:43:53.175Z,91.30
2022-08-21T01:46:19.807Z,91.85
2022-08-21T01:48:46.754Z,91.96
2022-08-21T01:51:13.393Z,91.83
2022-08-21T01:53:40.068Z,91.24
2022-08-21T01:56:12.266Z,91.18
2022-08-21T01:58:40.967Z,91.54
2022-08-21T02:01:08.145Z,91.97
2022-08-21T02:03:36.049Z,92.44
2022-08-21T02:06:04.940Z,92.40
2022-08-21T02:08:32.179Z,91.72
2022-08-21T02:11:01.565Z,91.01
2022-08-21T02:13:28.367Z,90.58
2022-08-21T02:15:55.019Z,90.08
2022-08-21T02:18:21.858Z,90.49
2022-08-21T02:20:55.273Z,91.08
2022-08-21T02:23:26.787Z,90.71
2022-08-21T02:26:06.032Z,90.72
2022-08-21T02:28:33.507Z,90.86
2022-08-21T02:31:00.936Z,90.63
2022-08-21T02:33:28.818Z,89.96
2022-08-21T02:35:57.381Z,90.32
2022-08-21T02:38:27.983Z,90.69
2022-08-21T02:40:56.276Z,91.38
2022-08-21T02:43:25.091Z,92.54
2022-08-21T02:45:53.361Z,93.01
2022-08-21T02:48:23.838Z,93.00
2022-08-21T02:51:01.220Z,93.67
2022-08-21T02:53:28.691Z,94.13
2022-08-21T02:55:57.261Z,94.50
2022-08-21T02:58:27.157Z,94.39
2022-08-21T03:00:54.283Z,94.46
2022-08-21T03:03:23.702Z,94.33
2022-08-21T03:05:50.680Z,94.23
2022-08-21T03:08:18.339Z,94.33
2022-08-21T03:10:50.682Z,94.23
2022-08-21T03:13:18.916Z,94.81
2022-08-21T03:15:45.909Z,95.36
2022-08-21T03:18:13.259Z,96.01
2022-08-21T03:20:42.707Z,96.22
2022-08-21T03:23:13.272Z,96.45
2022-08-21T03:25:42.766Z,96.01
2022-08-21T03:28:13.847Z,96.64
2022-08-21T03:30:45.989Z,97.40
2022-08-21T03:33:15.111Z,97.91
2022-08-21T03:35:48.315Z,98.16
2022-08-21T03:38:14.843Z,98.37
2022-08-21T03:40:43.127Z,98.23
2022-08-21T03:43:10.604Z,97.87
2022-08-21T03:45:38.556Z,97.86
2022-08-21T03:48:06.785Z,97.43
2022-08-21T03:50:41.477Z,96.77
2022-08-21T03:53:17.217Z,96.94
2022-08-21T03:55:47.929Z,96.93
2022-08-21T03:58:17.743Z,96.74
2022-08-21T04:00:47.802Z,96.68
2022-08-21T04:03:14.892Z,96.41
2022-08-21T04:05:47.024Z,96.09
2022-08-21T04:08:16.451Z,95.49
2022-08-21T04:10:44.964Z,95.98
2022-08-21T04:13:11.729Z,96.32
2022-08-21T04:15:38.953Z,96.00
2022-08-21T04:18:06.941Z,95.64
2022-08-21T04:20:34.556Z,95.49
2022-08-21T04:23:03.034Z,95.15
2022-08-21T04:25:29.782Z,93.95
2022-08-21T04:27:56.670Z,93.45
2022-08-21T04:30:28.319Z,93.41
2022-08-21T04:32:56.895Z,94.15
2022-08-21T04:35:25.631Z,95.03
2022-08-21T04:37:52.994Z,95.87
2022-08-21T04:40:21.896Z,96.53
2022-08-21T04:42:57.785Z,96.92
2022-08-21T04:45:46.354Z,97.21
2022-08-21T04:48:14.984Z,97.13
2022-08-21T04:50:41.572Z,97.04
2022-08-21T04:53:13.090Z,96.67
2022-08-21T04:55:43.262Z,96.36
2022-08-21T04:58:13.941Z,96.21
2022-08-21T05:03:17.973Z,94.72
2022-08-21T05:05:44.923Z,94.11
2022-08-21T05:08:15.461Z,94.45
2022-08-21T05:10:43.140Z,95.09
2022-08-21T05:13:10.857Z,95.47
2022-08-21T05:15:38.307Z,95.53
2022-08-21T05:18:05.347Z,95.65
2022-08-21T05:20:31.922Z,96.16
2022-08-21T05:22:58.734Z,96.55
2022-08-21T05:25:26.113Z,96.68
2022-08-21T05:27:54.828Z,96.47
2022-08-21T05:30:21.880Z,95.84
2022-08-21T05:32:48.812Z,95.53
2022-08-21T05:35:18.077Z,95.57
2022-08-21T05:37:45.017Z,95.72
2022-08-21T05:40:21.658Z,95.30
2022-08-21T05:42:55.047Z,94.19
2022-08-21T05:45:42.595Z,93.95
2022-08-21T05:48:19.275Z,93.55
2022-08-21T05:50:47.294Z,93.43
2022-08-21T05:53:15.899Z,93.90
2022-08-21T05:55:46.318Z,94.31
2022-08-21T05:58:15.830Z,94.77
2022-08-21T06:00:42.864Z,95.33
2022-08-21T06:03:18.457Z,94.66
2022-08-21T06:05:46.387Z,95.00
2022-08-21T06:08:13.452Z,94.29
2022-08-21T06:10:40.037Z,93.58
2022-08-21T06:13:06.666Z,93.70
2022-08-21T06:15:35.475Z,94.25
2022-08-21T06:18:02.898Z,94.31
2022-08-21T06:20:29.470Z,94.20
2022-08-21T06:22:56.360Z,94.40
2022-08-21T06:25:23.031Z,94.49
2022-08-21T06:27:51.933Z,94.06
2022-08-21T06:30:19.108Z,93.85
2022-08-21T06:32:45.893Z,94.28
2022-08-21T06:35:12.446Z,94.56
2022-08-21T06:37:38.940Z,95.26
2022-08-21T06:40:07.106Z,95.62
2022-08-21T06:42:39.422Z,95.72
2022-08-21T06:45:08.342Z,96.11
2022-08-21T06:47:35.411Z,95.99
2022-08-21T06:50:01.944Z,94.31
2022-08-21T06:52:28.849Z,93.80
2022-08-21T06:54:55.426Z,94.04
2022-08-21T06:57:22.738Z,94.00
2022-08-21T06:59:49.297Z,93.72
2022-08-21T07:02:18.399Z,92.79
2022-08-21T07:04:45.162Z,91.19
2022-08-21T07:07:11.706Z,91.63
2022-08-21T07:09:38.201Z,90.85
2022-08-21T07:12:04.883Z,90.58
2022-08-21T07:14:31.329Z,90.32
2022-08-21T07:16:58.077Z,89.49
2022-08-21T07:19:24.564Z,88.23
2022-08-21T07:21:51.764Z,88.83
2022-08-21T07:24:18.672Z,88.96
2022-08-21T07:26:45.176Z,88.75
2022-08-21T07:29:11.695Z,88.54
2022-08-21T07:31:38.444Z,88.09
2022-08-21T07:34:05.052Z,88.27
2022-08-21T07:36:33.327Z,87.60
2022-08-21T07:39:02.006Z,87.42
2022-08-21T07:41:30.809Z,88.32
2022-08-21T07:43:58.299Z,88.31
2022-08-21T07:46:25.629Z,88.27
2022-08-21T07:48:53.782Z,88.25
2022-08-21T07:51:24.893Z,88.51
2022-08-21T07:53:54.070Z,87.90
2022-08-21T07:56:21.476Z,86.96
2022-08-21T07:58:48.794Z,85.81
2022-08-21T08:01:15.912Z,85.01
2022-08-21T08:03:45.185Z,83.89
2022-08-21T08:06:13.386Z,83.02
2022-08-21T08:08:41.926Z,81.95
2022-08-21T08:11:16.294Z,81.83
2022-08-21T08:13:49.702Z,81.79
2022-08-21T08:16:17.005Z,82.96
2022-08-21T08:18:43.812Z,83.10
2022-08-21T08:21:11.552Z,82.21
2022-08-21T08:23:38.893Z,82.79
2022-08-21T08:26:59.971Z,84.39
2022-08-21T08:29:23.118Z,85.69
2022-08-21T08:31:49.730Z,84.91
2022-08-21T08:34:23.335Z,84.30
2022-08-21T08:36:54.849Z,84.79
2022-08-21T08:39:26.643Z,84.90
2022-08-21T08:42:33.995Z,84.22
2022-08-21T08:45:00.445Z,83.44
2022-08-21T08:47:28.511Z,83.29
2022-08-21T08:50:11.786Z,82.83
2022-08-21T08:53:14.944Z,82.70
2022-08-21T08:55:45.074Z,83.43
2022-08-21T08:58:19.639Z,82.26
2022-08-21T09:00:53.454Z,80.47
2022-08-21T09:03:22.321Z,80.18
2022-08-21T09:06:37.896Z,79.96
2022-08-21T09:09:12.332Z,80.40
2022-08-21T09:12:00.717Z,80.43
2022-08-21T09:14:43.112Z,79.26
2022-08-21T09:17:23.915Z,79.50
2022-08-21T09:20:03.718Z,79.99
2022-08-21T09:22:36.966Z,80.27
2022-08-21T09:25:13.449Z,80.38
2022-08-21T09:27:41.045Z,80.00
2022-08-21T09:30:08.685Z,80.20
2022-08-21T09:32:38.218Z,79.95
2022-08-21T09:35:18.325Z,78.71
2022-08-21T09:37:53.543Z,77.27
2022-08-21T09:40:43.853Z,75.00
2022-08-21T09:43:18.095Z,74.90
2022-08-21T09:45:46.238Z,75.23
2022-08-21T09:48:20.888Z,76.48
2022-08-21T09:50:49.621Z,76.88
2022-08-21T09:53:29.766Z,76.10
2022-08-21T09:56:35.537Z,74.92
2022-08-21T09:59:02.403Z,74.21
2022-08-21T10:01:29.120Z,73.52
2022-08-21T10:04:11.652Z,72.09
2022-08-21T10:06:38.736Z,70.89
2022-08-21T10:09:17.939Z,67.91
2022-08-21T10:12:01.394Z,67.93
2022-08-21T10:14:35.806Z,70.55
2022-08-21T10:17:27.663Z,68.59
2022-08-21T10:20:08.146Z,66.25
2022-08-21T10:22:42.848Z,64.29
2022-08-21T10:25:33.919Z,64.21
2022-08-21T10:28:24.215Z,62.82
2022-08-21T10:31:03.730Z,63.91
2022-08-21T10:33:43.496Z,65.64
2022-08-21T10:36:15.939Z,66.24
2022-08-21T10:38:58.752Z,66.53
2022-08-21T10:41:59.363Z,66.92
2022-08-21T10:45:12.520Z,66.17
2022-08-21T10:47:47.220Z,65.67
2022-08-21T10:50:30.247Z,66.77
2022-08-21T10:53:16.687Z,65.96
2022-08-21T10:55:57.662Z,65.75
2022-08-21T10:58:45.898Z,66.05
2022-08-21T11:01:28.675Z,65.41
2022-08-21T11:04:20.660Z,63.70
2022-08-21T11:06:59.887Z,62.90
2022-08-21T11:09:29.861Z,62.61
2022-08-21T11:12:19.069Z,61.49
2022-08-21T11:14:57.740Z,60.85
2022-08-21T11:17:34.035Z,60.51
2022-08-21T11:20:37.145Z,63.12
2022-08-21T11:23:22.390Z,60.32
2022-08-21T11:25:54.554Z,60.71
2022-08-21T11:28:30.595Z,60.08
2022-08-21T11:31:21.933Z,60.13
2022-08-21T11:34:09.638Z,60.47
2022-08-21T11:36:47.145Z,59.88
2022-08-21T11:39:31.685Z,57.83
2022-08-21T11:42:13.233Z,54.71
2022-08-21T11:44:50.544Z,52.69
2022-08-21T11:47:29.167Z,53.13
2022-08-21T11:50:34.169Z,53.62
2022-08-21T11:53:25.848Z,52.44
2022-08-21T11:56:08.748Z,49.43
2022-08-21T11:58:46.604Z,50.21
2022-08-21T12:01:25.925Z,51.58
2022-08-21T12:04:00.115Z,49.98
2022-08-21T12:06:33.926Z,48.80
2022-08-21T12:09:07.150Z,51.07
2022-08-21T12:11:48.214Z,47.43
2022-08-21T12:14:18.239Z,48.66
2022-08-21T12:16:47.654Z,48.89
2022-08-21T12:19:30.445Z,46.82
2022-08-21T12:22:00.084Z,46.87
2022-08-21T12:24:51.452Z,46.68
2022-08-21T12:27:18.186Z,46.92
2022-08-21T12:29:50.841Z,45.93
2022-08-21T12:32:17.336Z,44.64
2022-08-21T12:34:49.288Z,44.19
2022-08-21T12:37:31.812Z,42.89
2022-08-21T12:40:01.706Z,42.07
2022-08-21T12:42:40.942Z,38.78
2022-08-21T12:45:32.079Z,40.69
2022-08-21T12:48:24.228Z,39.25
2022-08-21T12:50:53.273Z,42.57
2022-08-21T12:53:32.018Z,44.65
2022-08-21T12:56:04.569Z,45.68
2022-08-21T12:58:32.267Z,43.98
2022-08-21T13:01:20.314Z,43.37
2022-08-21T13:03:47.563Z,43.96
2022-08-21T13:06:38.700Z,44.00
2022-08-21T13:09:08.585Z,45.91
2022-08-21T13:11:36.090Z,45.20
2022-08-21T13:14:05.203Z,44.65
2022-08-21T13:16:32.843Z,44.28
2022-08-21T13:19:07.754Z,43.69
2022-08-21T13:21:39.683Z,44.99
2022-08-21T13:24:41.702Z,43.89
2022-08-21T13:27:30.993Z,43.83
2022-08-21T13:30:14.638Z,44.29
2022-08-21T13:32:44.977Z,44.02
2022-08-21T13:35:21.765Z,40.87
2022-08-21T13:37:53.263Z,41.14
2022-08-21T13:40:40.656Z,41.66
2022-08-21T13:43:14.481Z,42.23
2022-08-21T13:45:51.155Z,42.42
2022-08-21T13:48:18.889Z,41.01
2022-08-21T13:50:46.389Z,39.66
2022-08-21T13:53:30.941Z,39.88
2022-08-21T13:56:00.944Z,39.82
2022-08-21T13:58:32.406Z,39.71
2022-08-21T14:01:05.032Z,40.13
2022-08-21T14:03:42.525Z,39.16
2022-08-21T14:06:33.842Z,38.93
2022-08-21T14:09:12.389Z,38.25
2022-08-21T14:11:40.834Z,37.82
2022-08-21T14:14:30.868Z,38.08
2022-08-21T14:17:01.154Z,37.89
2022-08-21T14:19:50.620Z,36.23
2022-08-21T14:22:33.603Z,36.68
2022-08-21T14:25:15.097Z,37.40
2022-08-21T14:27:52.548Z,36.68
2022-08-21T14:30:23.651Z,36.48
2022-08-21T14:32:50.413Z,36.49
2022-08-21T14:35:18.848Z,37.07
2022-08-21T14:37:53.972Z,36.62
2022-08-21T14:40:23.135Z,36.83
2022-08-21T14:42:52.150Z,34.90
2022-08-21T14:45:28.010Z,35.62
2022-08-21T14:47:55.582Z,36.61
2022-08-21T14:50:22.372Z,38.31
2022-08-21T14:52:49.039Z,35.53
2022-08-21T14:55:17.999Z,35.60
2022-08-21T14:57:48.319Z,36.45
2022-08-21T15:00:18.715Z,36.92
2022-08-21T15:02:45.419Z,35.62
2022-08-21T15:05:13.279Z,35.20
2022-08-21T15:07:42.122Z,34.95
2022-08-21T15:10:10.008Z,34.97
2022-08-21T15:12:36.953Z,34.31
2022-08-21T15:15:07.341Z,34.11
2022-08-21T15:17:34.339Z,33.96
2022-08-21T15:20:01.128Z,33.25
2022-08-21T15:22:28.505Z,33.25
2022-08-21T15:24:55.256Z,32.86
2022-08-21T15:27:21.930Z,33.24
2022-08-21T15:29:48.705Z,33.63
2022-08-21T15:32:23.217Z,34.18
2022-08-21T15:34:51.617Z,34.55
2022-08-21T15:37:19.423Z,34.56
2022-08-21T15:39:51.109Z,34.89
2022-08-21T15:42:20.947Z,35.24
2022-08-21T15:44:48.937Z,34.69
2022-08-21T15:47:20.189Z,34.07
2022-08-21T15:49:47.263Z,34.07
2022-08-21T15:52:20.198Z,33.98
2022-08-21T15:54:47.419Z,33.58
2022-08-21T15:57:18.943Z,34.22
2022-08-21T15:59:53.384Z,36.86
2022-08-21T16:02:25.319Z,34.47
2022-08-21T16:04:52.279Z,34.34
2022-08-21T16:07:18.766Z,34.00
2022-08-21T16:09:45.723Z,34.50
2022-08-21T16:12:21.731Z,34.83
2022-08-21T16:14:48.545Z,34.37
2022-08-21T16:17:15.186Z,34.44
2022-08-21T16:19:42.275Z,34.38
2022-08-21T16:22:11.755Z,34.36
2022-08-21T16:24:38.642Z,34.89
2022-08-21T16:27:07.985Z,35.35
2022-08-21T16:29:37.031Z,35.54
2022-08-21T16:32:05.178Z,34.34
2022-08-21T16:34:32.015Z,34.45
2022-08-21T16:36:58.904Z,35.14
2022-08-21T16:39:25.783Z,35.26
2022-08-21T16:41:52.547Z,35.32
2022-08-21T16:44:22.019Z,35.49
2022-08-21T16:46:49.814Z,34.46
2022-08-21T16:49:17.119Z,33.53
2022-08-21T16:51:43.752Z,32.50
2022-08-21T16:54:11.204Z,33.29
2022-08-21T16:56:40.458Z,33.55
2022-08-21T16:59:08.193Z,34.35
2022-08-21T17:01:37.152Z,34.07
2022-08-21T17:04:04.115Z,34.46
2022-08-21T17:06:32.705Z,35.06
2022-08-21T17:08:59.979Z,35.22
2022-08-21T17:11:37.844Z,35.15
2022-08-21T17:14:19.642Z,35.53
2022-08-21T17:16:49.909Z,35.87
2022-08-21T17:19:17.041Z,35.19
2022-08-21T17:21:43.896Z,35.52
2022-08-21T17:24:10.745Z,35.88
2022-08-21T17:26:37.689Z,35.70
2022-08-21T17:29:10.001Z,35.65
2022-08-21T17:31:38.961Z,35.78
2022-08-21T17:34:06.968Z,35.52
2022-08-21T17:36:34.512Z,36.27
2022-08-21T17:39:01.268Z,36.50
2022-08-21T17:41:28.225Z,36.52
2022-08-21T17:43:55.352Z,36.97
2022-08-21T17:46:26.840Z,37.50
2022-08-21T17:48:54.528Z,37.96
2022-08-21T17:51:22.038Z,37.92
2022-08-21T17:53:48.545Z,38.29
2022-08-21T17:56:17.044Z,38.31
2022-08-21T17:58:48.554Z,38.53
2022-08-21T18:01:16.087Z,38.85
2022-08-21T18:03:42.994Z,38.31
2022-08-21T18:06:13.277Z,39.36
2022-08-21T18:08:42.538Z,39.52
2022-08-21T18:11:10.515Z,40.16
2022-08-21T18:13:50.074Z,41.29
2022-08-21T18:16:19.440Z,41.80
2022-08-21T18:18:49.231Z,41.69
2022-08-21T18:21:16.123Z,42.05
2022-08-21T18:23:44.821Z,42.66
2022-08-21T18:26:15.140Z,42.98
2022-08-21T18:28:44.097Z,43.45
2022-08-21T18:31:12.148Z,44.23
2022-08-21T18:33:40.078Z,44.49
2022-08-21T18:36:22.822Z,45.51
2022-08-21T18:38:49.683Z,45.49
2022-08-21T18:41:16.826Z,46.62
2022-08-21T18:43:43.623Z,47.50
2022-08-21T18:46:10.716Z,48.62
2022-08-21T18:48:37.331Z,48.53
2022-08-21T18:51:04.168Z,48.85
2022-08-21T18:53:33.977Z,49.49
2022-08-21T18:56:04.936Z,49.82
2022-08-21T18:58:33.037Z,51.18
2022-08-21T19:01:00.040Z,51.73
2022-08-21T19:03:26.764Z,51.57
2022-08-21T19:05:54.469Z,53.19
2022-08-21T19:08:23.470Z,53.41
2022-08-21T19:10:53.255Z,53.80
2022-08-21T19:13:25.047Z,54.27
2022-08-21T19:15:53.084Z,54.13
2022-08-21T19:18:24.194Z,54.54
2022-08-21T19:23:44.333Z,55.88
2022-08-21T19:26:12.564Z,56.37
2022-08-21T19:28:44.868Z,56.24
2022-08-21T19:31:23.692Z,56.47
2022-08-21T19:34:01.485Z,57.38
2022-08-21T19:36:28.951Z,57.18
2022-08-21T19:38:56.076Z,56.85
2022-08-21T19:41:32.144Z,55.96
2022-08-21T19:44:02.900Z,56.04
2022-08-21T19:46:32.705Z,56.26
2022-08-21T19:49:04.470Z,56.85
2022-08-21T19:51:34.441Z,57.05
2022-08-21T19:54:01.665Z,57.65
2022-08-21T19:56:32.390Z,57.97
2022-08-21T19:59:03.072Z,58.22
2022-08-21T20:01:33.134Z,59.00
2022-08-21T20:04:00.489Z,59.63
2022-08-21T20:06:27.389Z,60.22
2022-08-21T20:08:57.568Z,60.75
2022-08-21T20:11:34.689Z,60.91
2022-08-21T20:14:03.041Z,61.30
2022-08-21T20:16:30.104Z,61.94
2022-08-21T20:19:04.744Z,61.80
2022-08-21T20:21:43.511Z,61.61
2022-08-21T20:24:24.407Z,61.50
2022-08-21T20:27:06.145Z,61.31
2022-08-21T20:29:51.143Z,60.71
2022-08-21T20:32:17.825Z,61.29
2022-08-21T20:34:52.054Z,60.84
2022-08-21T20:37:36.427Z,60.89
2022-08-21T20:40:15.643Z,62.01
2022-08-21T20:42:55.815Z,62.58
2022-08-21T20:45:43.381Z,62.73
2022-08-21T20:48:49.325Z,62.61
2022-08-21T20:51:35.730Z,62.17
2022-08-21T20:54:24.196Z,62.45
2022-08-21T20:57:04.388Z,62.21
2022-08-21T20:59:37.548Z,61.36
2022-08-21T21:02:33.528Z,60.97
2022-08-21T21:05:24.947Z,62.01
2022-08-21T21:07:55.694Z,62.79
2022-08-21T21:10:26.885Z,65.90
2022-08-21T21:13:17.807Z,67.16
2022-08-21T21:15:54.725Z,67.64
2022-08-21T21:18:41.952Z,66.88
2022-08-21T21:21:17.215Z,66.76
2022-08-21T21:23:54.352Z,66.23
2022-08-21T21:26:29.138Z,67.07
2022-08-21T21:28:56.094Z,67.80
2022-08-21T21:31:26.585Z,68.20
2022-08-21T21:33:54.061Z,68.31
2022-08-21T21:36:34.473Z,68.02
2022-08-21T21:39:01.535Z,67.29
2022-08-21T21:41:44.769Z,66.35
2022-08-21T21:44:18.673Z,65.75
2022-08-21T21:47:15.913Z,65.42
2022-08-21T21:49:58.571Z,65.53
2022-08-21T21:52:45.356Z,65.00
2022-08-21T21:55:33.504Z,65.39
2022-08-21T21:58:24.734Z,67.92
2022-08-21T22:01:02.920Z,68.83
2022-08-21T22:04:03.817Z,70.54
2022-08-21T22:06:30.741Z,70.73
2022-08-21T22:09:05.328Z,70.92
2022-08-21T22:11:55.575Z,70.37
2022-08-21T22:14:31.785Z,70.03
2022-08-21T22:17:11.095Z,69.72
2022-08-21T22:19:43.552Z,69.39
2022-08-21T22:22:20.063Z,69.58
2022-08-21T22:24:50.644Z,69.82
2022-08-21T22:27:34.116Z,69.27
2022-08-21T22:30:06.590Z,68.97
2022-08-21T22:35:33.258Z,70.44
2022-08-21T22:38:01.491Z,70.69
2022-08-21T22:40:36.320Z,71.70
2022-08-21T22:43:16.550Z,71.81
2022-08-21T22:46:07.211Z,72.48
2022-08-21T22:48:46.543Z,73.07
2022-08-21T22:51:26.114Z,73.08
2022-08-21T22:54:00.106Z,73.30
2022-08-21T22:56:38.549Z,73.98
2022-08-21T22:59:24.055Z,74.31
2022-08-21T23:02:01.907Z,74.08
2022-08-21T23:04:29.055Z,74.51
2022-08-21T23:06:59.525Z,74.62
2022-08-21T23:09:29.814Z,75.34
2022-08-21T23:11:57.793Z,75.76
2022-08-21T23:14:35.074Z,75.61
2022-08-21T23:17:14.416Z,75.26
2022-08-21T23:20:09.945Z,74.40
2022-08-21T23:22:41.733Z,74.32
2022-08-21T23:25:24.397Z,74.56
2022-08-21T23:27:57.691Z,74.88
2022-08-21T23:30:30.276Z,75.26
2022-08-21T23:33:15.910Z,75.87
2022-08-21T23:36:22.156Z,76.38
2022-08-21T23:39:10.074Z,77.01
2022-08-21T23:41:51.864Z,76.88
2022-08-21T23:44:41.121Z,77.10
2022-08-21T23:47:40.434Z,76.43
2022-08-21T23:50:22.617Z,75.55
2022-08-21T23:52:57.235Z,75.45
2022-08-21T23:55:24.693Z,75.29
2022-08-21T23:58:09.162Z,75.39
